Airfield :
LOGIN :

Register | Disclaimer

   EN    FR    IT 

 










Legend :    VFR   Marginal VFR   IFR   Intensive IFR   Very Intensive IFR
Visi :
Ceiling :
>= 8 km
>= 3000ft
5 to 8 km
1000 to 3000 ft
1500m to 5 km
500 to 1000 ft
800 to 1500m
200 to 500 ft
< 800m
< 200 ft
Symbols :   Thunderstorms  Fog  Heavy snow  Heavy precipitations  Wind > 20 kt
SIGMETs :     Misc.  Thunderstorms  Icing  Turbulence  Mountain Waves  Volcanic Ashes







- Airport Elevation : 326 ft
- IATA code : LCG
- Download approach charts


LECO - A Coruna

CURRENT METAR :
  • 190400Z 02005KT 340V070 9999 BKN017 OVC030 13/11 Q1017 NOSIG

EXPIRED METARs :
  • 190330Z 02006KT 330V060 9999 SCT017 BKN030 13/11 Q1017 NOSIG
  • 190300Z AUTO 02005KT 310V070 9999 FEW012 BKN017 OVC028 13/11 Q1017
  • 190230Z AUTO 36004KT 320V050 9999 SCT020 BKN026 OVC032 12/11 Q1017
  • 190200Z AUTO 02005KT 340V060 9999 SCT015 BKN020 BKN026 12/11 Q1017

TAF TAF LECO
Valid from the 19 at 03:00 until the 20 at 03:00 UTC


190200Z 1903/2003 02005KT 9999 SCT030 TX18/1915Z TN11/1906Z
PROB30
TEMPO 1903/1906 3000 -RA BR BKN010
TEMPO 1911/1917 03015KT
No reported NOTAMs for that airfield.



MET'MAP, your aeronautical weather chart ! - Copyright ORBIFLY December 2007 - Disclaimer

ORBIFLY MET'MAP TEAM :

Programming & Development : Alexandra Zaïnal
Concept & Development : Baudouin d'Aumeries
Co-Development & Prog : Marc-Olivier Méhu
Technical & hardware support : Manuel Goepfert

Contact : metmap@orbifly.com




SOURCES & CREDITS :

   NOAA